createdAt,value
2017-10-29T00:01:28.047Z,55.40
2017-10-29T00:03:56.750Z,55.20
2017-10-29T00:06:25.455Z,55.00
2017-10-29T00:08:54.152Z,55.30
2017-10-29T00:11:23.610Z,57.30
2017-10-29T00:13:52.410Z,57.30
2017-10-29T00:16:21.093Z,57.50
2017-10-29T00:18:49.778Z,57.30
2017-10-29T00:21:18.481Z,57.20
2017-10-29T00:23:47.154Z,56.40
2017-10-29T00:26:15.841Z,56.60
2017-10-29T00:28:44.554Z,57.80
2017-10-29T00:31:13.221Z,58.40
2017-10-29T00:33:41.902Z,57.90
2017-10-29T00:36:10.591Z,58.00
2017-10-29T00:38:39.293Z,57.50
2017-10-29T00:41:08.009Z,57.80
2017-10-29T00:43:36.686Z,58.70
2017-10-29T00:46:06.128Z,58.70
2017-10-29T00:48:34.629Z,58.40
2017-10-29T00:51:03.337Z,58.80
2017-10-29T00:53:32.014Z,58.50
2017-10-29T00:56:00.741Z,59.00
2017-10-29T00:58:29.498Z,60.30
2017-10-29T01:00:57.867Z,60.30
2017-10-29T01:03:25.870Z,59.70
2017-10-29T01:05:55.323Z,60.80
2017-10-29T01:08:23.981Z,60.80
2017-10-29T01:10:52.679Z,60.00
2017-10-29T01:13:21.378Z,60.40
2017-10-29T01:15:50.074Z,60.50
2017-10-29T01:18:18.766Z,59.60
2017-10-29T01:20:47.501Z,59.70
2017-10-29T01:23:16.971Z,59.10
2017-10-29T01:25:45.313Z,59.10
2017-10-29T01:28:13.662Z,59.30
2017-10-29T01:30:43.132Z,60.30
2017-10-29T01:33:11.828Z,60.20
2017-10-29T01:35:40.302Z,59.90
2017-10-29T01:38:08.998Z,59.60
2017-10-29T01:40:37.684Z,59.80
2017-10-29T01:43:06.401Z,60.40
2017-10-29T01:45:35.879Z,61.60
2017-10-29T01:48:04.556Z,61.50
2017-10-29T01:50:33.501Z,60.90
2017-10-29T01:53:02.539Z,60.90
2017-10-29T01:55:31.234Z,62.50
2017-10-29T01:57:59.924Z,62.70
2017-10-29T02:00:28.612Z,62.10
2017-10-29T02:02:57.287Z,62.30
2017-10-29T02:05:25.917Z,64.00
2017-10-29T02:07:55.378Z,62.70
2017-10-29T02:10:24.101Z,62.60
2017-10-29T02:12:53.607Z,61.60
2017-10-29T02:15:23.067Z,61.70
2017-10-29T02:17:51.765Z,61.70
2017-10-29T02:20:20.146Z,61.90
2017-10-29T02:22:48.488Z,61.90
2017-10-29T02:25:17.186Z,63.30
2017-10-29T02:27:45.899Z,63.10
2017-10-29T02:30:14.614Z,63.40
2017-10-29T02:32:43.298Z,63.60
2017-10-29T02:35:12.102Z,63.50
2017-10-29T02:37:40.846Z,63.20
2017-10-29T02:40:09.537Z,62.80
2017-10-29T02:42:38.241Z,63.70
2017-10-29T02:45:06.940Z,62.20
2017-10-29T02:47:36.385Z,63.30
2017-10-29T02:50:05.109Z,63.30
2017-10-29T02:52:33.796Z,62.80
2017-10-29T02:55:02.489Z,63.20
2017-10-29T02:57:30.526Z,62.70
2017-10-29T02:59:59.223Z,62.50
2017-10-29T03:02:27.921Z,62.90
2017-10-29T03:04:56.629Z,61.90
2017-10-29T03:07:25.340Z,62.30
2017-10-29T03:09:54.046Z,63.60
2017-10-29T03:12:22.774Z,62.90
2017-10-29T03:14:51.472Z,63.40
2017-10-29T03:17:20.159Z,64.20
2017-10-29T03:19:48.851Z,62.90
2017-10-29T03:22:17.539Z,63.10
2017-10-29T03:24:46.223Z,63.10
2017-10-29T03:27:14.941Z,64.30
2017-10-29T03:29:44.405Z,65.40
2017-10-29T03:32:13.102Z,65.40
2017-10-29T03:34:42.017Z,64.90
2017-10-29T03:37:10.698Z,64.00
2017-10-29T03:39:39.378Z,64.50
2017-10-29T03:42:08.060Z,64.80
2017-10-29T03:44:36.744Z,64.30
2017-10-29T03:47:05.439Z,63.50
2017-10-29T03:49:34.132Z,63.70
2017-10-29T03:52:02.796Z,64.60
2017-10-29T03:54:31.484Z,63.50
2017-10-29T03:57:00.204Z,63.20
2017-10-29T03:59:29.672Z,63.50
2017-10-29T04:01:58.364Z,63.50
2017-10-29T04:04:27.078Z,63.60
2017-10-29T04:06:55.750Z,64.30
2017-10-29T04:09:24.452Z,64.00
2017-10-29T04:11:53.908Z,64.00
2017-10-29T04:14:22.610Z,64.00
2017-10-29T04:16:51.316Z,64.50
2017-10-29T04:19:20.004Z,64.60
2017-10-29T04:21:48.709Z,65.30
2017-10-29T04:24:17.408Z,65.40
2017-10-29T04:26:46.132Z,65.50
2017-10-29T04:29:14.823Z,65.40
2017-10-29T04:31:43.536Z,64.80
2017-10-29T04:34:12.244Z,65.80
2017-10-29T04:36:40.931Z,65.70
2017-10-29T04:39:10.411Z,65.90
2017-10-29T04:41:39.108Z,66.50
2017-10-29T04:44:07.624Z,66.60
2017-10-29T04:46:36.568Z,65.70
2017-10-29T04:49:05.271Z,65.70
2017-10-29T04:51:33.978Z,65.50
2017-10-29T04:54:03.451Z,65.40
2017-10-29T04:56:32.176Z,65.30
2017-10-29T04:59:00.859Z,64.40
2017-10-29T05:01:30.422Z,64.50
2017-10-29T05:03:59.886Z,65.50
2017-10-29T05:06:29.345Z,64.80
2017-10-29T05:08:58.027Z,64.70
2017-10-29T05:11:26.731Z,64.70
2017-10-29T05:13:55.425Z,64.20
2017-10-29T05:16:24.146Z,65.40
2017-10-29T05:18:52.831Z,64.90
2017-10-29T05:21:21.511Z,65.20
2017-10-29T05:23:50.208Z,65.50
2017-10-29T05:26:18.913Z,65.50
2017-10-29T05:28:47.600Z,65.20
2017-10-29T05:31:16.280Z,65.40
2017-10-29T05:33:44.983Z,64.90
2017-10-29T05:36:13.687Z,65.70
2017-10-29T05:38:42.376Z,65.20
2017-10-29T05:41:11.074Z,65.70
2017-10-29T05:43:39.446Z,65.20
2017-10-29T05:46:08.112Z,65.40
2017-10-29T05:48:36.798Z,65.00
2017-10-29T05:51:05.495Z,65.40
2017-10-29T05:53:34.199Z,65.20
2017-10-29T05:56:02.896Z,65.20
2017-10-29T05:58:31.571Z,65.80
2017-10-29T06:01:00.248Z,65.60
2017-10-29T06:03:28.935Z,65.30
2017-10-29T06:05:57.608Z,65.80
2017-10-29T06:08:26.284Z,65.70
2017-10-29T06:10:55.282Z,65.30
2017-10-29T06:13:24.032Z,66.00
2017-10-29T06:15:52.774Z,66.20
2017-10-29T06:18:21.116Z,65.90
2017-10-29T06:20:49.785Z,65.60
2017-10-29T06:23:19.231Z,65.30
2017-10-29T06:25:48.015Z,65.30
2017-10-29T06:28:16.813Z,66.20
2017-10-29T06:30:45.186Z,65.60
2017-10-29T06:33:13.881Z,65.50
2017-10-29T06:35:42.581Z,65.60
2017-10-29T06:38:11.292Z,65.40
2017-10-29T06:40:39.963Z,66.20
2017-10-29T06:43:08.656Z,66.00
2017-10-29T06:45:37.338Z,65.70
2017-10-29T06:48:06.013Z,65.90
2017-10-29T06:50:34.713Z,65.50
2017-10-29T06:53:03.396Z,65.90
2017-10-29T06:55:32.081Z,65.80
2017-10-29T06:58:00.773Z,65.20
2017-10-29T07:00:29.454Z,64.90
2017-10-29T07:02:58.141Z,64.80
2017-10-29T07:05:26.558Z,63.70
2017-10-29T07:07:55.998Z,63.30
2017-10-29T07:10:24.692Z,63.20
2017-10-29T07:12:53.435Z,61.80
2017-10-29T07:15:22.939Z,62.00
2017-10-29T07:17:52.816Z,56.40
2017-10-29T07:20:21.888Z,50.50
2017-10-29T07:22:50.355Z,50.30
2017-10-29T07:25:18.961Z,47.70
2017-10-29T07:27:47.477Z,46.10
2017-10-29T07:30:15.957Z,36.80
2017-10-29T07:32:44.476Z,36.60
2017-10-29T07:35:12.974Z,33.70
2017-10-29T07:37:41.437Z,30.80
2017-10-29T07:40:09.914Z,29.80
2017-10-29T07:42:38.433Z,30.40
2017-10-29T07:45:06.586Z,32.60
2017-10-29T07:47:35.184Z,34.80
2017-10-29T07:50:03.311Z,35.20
2017-10-29T07:52:31.796Z,37.30
2017-10-29T07:55:00.368Z,37.50
2017-10-29T07:57:28.852Z,41.90
2017-10-29T07:59:57.324Z,43.90
2017-10-29T08:02:26.022Z,39.70
2017-10-29T08:04:54.725Z,40.40
2017-10-29T08:07:23.187Z,42.80
2017-10-29T08:09:52.382Z,37.90
2017-10-29T08:12:20.506Z,37.90
2017-10-29T08:14:48.925Z,36.10
2017-10-29T08:17:17.336Z,35.70
2017-10-29T08:19:45.801Z,39.20
2017-10-29T08:22:15.027Z,30.50
2017-10-29T08:24:43.695Z,30.30
2017-10-29T08:27:12.185Z,28.60
2017-10-29T08:29:40.652Z,28.90
2017-10-29T08:32:09.352Z,28.10
2017-10-29T08:34:37.840Z,26.00
2017-10-29T08:37:06.304Z,24.90
2017-10-29T08:39:34.780Z,22.90
2017-10-29T08:42:04.077Z,22.00
2017-10-29T08:44:33.306Z,20.30
2017-10-29T08:47:01.734Z,20.20
2017-10-29T08:49:30.246Z,21.70
2017-10-29T08:51:58.724Z,21.70
2017-10-29T08:54:27.971Z,21.70
2017-10-29T08:56:56.467Z,21.60
2017-10-29T08:59:24.948Z,20.40
2017-10-29T09:01:53.416Z,20.00
2017-10-29T09:04:21.942Z,18.60
2017-10-29T09:06:50.536Z,21.60
2017-10-29T09:09:19.762Z,21.00
2017-10-29T09:11:48.586Z,21.00
2017-10-29T09:14:17.062Z,20.20
2017-10-29T09:16:46.076Z,22.40
2017-10-29T09:22:13.851Z,23.80
2017-10-29T09:24:43.530Z,22.80
2017-10-29T09:27:12.076Z,23.80
2017-10-29T09:29:53.112Z,24.00
2017-10-29T09:32:21.595Z,24.00
2017-10-29T09:35:04.445Z,23.90
2017-10-29T09:37:32.944Z,24.90
2017-10-29T09:40:04.091Z,26.50
2017-10-29T09:42:39.875Z,26.70
2017-10-29T09:45:08.055Z,26.60
2017-10-29T09:47:38.626Z,26.20
2017-10-29T09:50:07.111Z,26.20
2017-10-29T09:52:35.584Z,26.50
2017-10-29T09:55:13.312Z,25.90
2017-10-29T09:57:42.550Z,27.50
2017-10-29T10:00:11.053Z,27.50
2017-10-29T10:02:39.554Z,27.90
2017-10-29T10:05:08.040Z,28.40
2017-10-29T10:07:36.511Z,27.60
2017-10-29T10:10:04.258Z,27.30
2017-10-29T10:12:32.665Z,27.90
2017-10-29T10:15:01.112Z,28.00
2017-10-29T10:17:29.534Z,26.70
2017-10-29T10:19:57.956Z,28.00
2017-10-29T10:22:26.461Z,29.30
2017-10-29T10:24:54.918Z,27.70
2017-10-29T10:27:23.406Z,25.80
2017-10-29T10:29:51.946Z,27.50
2017-10-29T10:32:20.399Z,28.10
2017-10-29T10:34:48.849Z,26.60
2017-10-29T10:37:17.447Z,25.50
2017-10-29T10:39:45.853Z,26.10
2017-10-29T10:42:14.262Z,25.30
2017-10-29T10:44:42.703Z,25.90
2017-10-29T10:47:11.254Z,26.00
2017-10-29T10:49:39.731Z,26.70
2017-10-29T10:52:08.864Z,31.80
2017-10-29T10:54:37.378Z,31.80
2017-10-29T10:57:05.803Z,32.90
2017-10-29T10:59:35.010Z,30.90
2017-10-29T11:02:03.442Z,30.90
2017-10-29T11:04:40.810Z,32.20
2017-10-29T11:07:09.252Z,34.00
2017-10-29T11:09:38.443Z,34.90
2017-10-29T11:12:06.857Z,34.90
2017-10-29T11:14:35.295Z,35.10
2017-10-29T11:17:03.734Z,35.30
2017-10-29T11:19:32.158Z,37.50
2017-10-29T11:22:01.429Z,41.90
2017-10-29T11:24:29.851Z,41.90
2017-10-29T11:26:59.019Z,42.60
2017-10-29T11:29:27.641Z,42.70
2017-10-29T11:31:57.547Z,48.60
2017-10-29T11:34:26.750Z,48.40
2017-10-29T11:36:55.168Z,48.40
2017-10-29T11:39:23.614Z,44.80
2017-10-29T11:41:52.789Z,42.80
2017-10-29T11:44:21.206Z,42.80
2017-10-29T11:46:51.223Z,41.20
2017-10-29T11:49:20.382Z,40.90
2017-10-29T11:51:48.829Z,41.00
2017-10-29T11:54:17.269Z,41.60
2017-10-29T11:56:45.724Z,37.70
2017-10-29T11:59:14.138Z,37.90
2017-10-29T12:01:43.310Z,38.40
2017-10-29T12:04:11.736Z,38.30
2017-10-29T12:06:40.201Z,40.20
2017-10-29T12:09:09.394Z,43.50
2017-10-29T12:11:38.570Z,44.60
2017-10-29T12:14:06.990Z,44.70
2017-10-29T12:16:35.401Z,48.90
2017-10-29T12:19:03.804Z,47.50
2017-10-29T12:21:32.221Z,46.90
2017-10-29T12:24:01.389Z,42.40
2017-10-29T12:26:29.793Z,42.30
2017-10-29T12:28:58.221Z,40.40
2017-10-29T12:31:26.621Z,43.20
2017-10-29T12:33:56.517Z,45.80
2017-10-29T12:36:24.930Z,47.40
2017-10-29T12:38:53.367Z,50.00
2017-10-29T12:41:21.777Z,53.80
2017-10-29T12:43:50.194Z,58.30
2017-10-29T12:46:19.406Z,64.30
2017-10-29T12:48:48.577Z,65.30
2017-10-29T12:51:16.973Z,65.30
2017-10-29T12:53:46.158Z,66.90
2017-10-29T12:56:14.552Z,66.80
2017-10-29T12:58:43.717Z,65.50
2017-10-29T13:01:12.126Z,65.40
2017-10-29T13:03:41.305Z,64.60
2017-10-29T13:06:09.726Z,64.40
2017-10-29T13:08:38.123Z,63.20
2017-10-29T13:11:06.527Z,63.50
2017-10-29T13:13:35.071Z,61.20
2017-10-29T13:16:04.216Z,63.10
2017-10-29T13:18:32.622Z,61.30
2017-10-29T13:21:01.293Z,63.60
2017-10-29T13:23:29.979Z,62.10
2017-10-29T13:25:58.644Z,61.10
2017-10-29T13:28:28.098Z,60.50
2017-10-29T13:30:56.851Z,60.40
2017-10-29T13:33:25.517Z,60.20
2017-10-29T13:35:54.959Z,59.70
2017-10-29T13:38:23.672Z,59.70
2017-10-29T13:40:52.402Z,59.10
2017-10-29T13:43:21.071Z,60.20
2017-10-29T13:45:49.947Z,59.50
2017-10-29T13:48:18.619Z,60.00
2017-10-29T13:50:47.282Z,59.60
2017-10-29T13:53:15.985Z,59.90
2017-10-29T13:55:44.651Z,60.00
2017-10-29T13:58:13.314Z,61.10
2017-10-29T14:00:42.749Z,61.20
2017-10-29T14:03:11.415Z,61.30
2017-10-29T14:05:40.069Z,59.40
2017-10-29T14:08:08.767Z,59.80
2017-10-29T14:10:37.421Z,60.60
2017-10-29T14:13:06.092Z,61.00
2017-10-29T14:15:34.786Z,59.80
2017-10-29T14:18:03.114Z,60.00
2017-10-29T14:20:32.686Z,59.70
2017-10-29T14:23:01.388Z,59.70
2017-10-29T14:25:30.051Z,58.10
2017-10-29T14:27:58.957Z,58.70
2017-10-29T14:30:27.650Z,57.40
2017-10-29T14:32:56.318Z,57.70
2017-10-29T14:35:24.982Z,57.70
2017-10-29T14:37:53.653Z,58.00
2017-10-29T14:40:22.330Z,56.00
2017-10-29T14:42:51.014Z,57.50
2017-10-29T14:45:20.111Z,55.90
2017-10-29T14:47:48.603Z,55.80
2017-10-29T14:50:17.313Z,55.40
2017-10-29T14:52:45.981Z,55.00
2017-10-29T14:55:14.702Z,52.40
2017-10-29T14:57:43.390Z,52.90
2017-10-29T15:00:12.158Z,52.30
2017-10-29T15:02:40.870Z,51.10
2017-10-29T15:05:09.534Z,50.50
2017-10-29T15:07:38.209Z,50.00
2017-10-29T15:10:06.882Z,50.50
2017-10-29T15:12:36.336Z,49.50
2017-10-29T15:15:05.000Z,49.50
2017-10-29T15:17:33.657Z,48.90
2017-10-29T15:20:03.131Z,49.60
2017-10-29T15:22:31.794Z,49.50
2017-10-29T15:25:00.465Z,47.00
2017-10-29T15:27:29.144Z,46.30
2017-10-29T15:29:57.802Z,46.00
2017-10-29T15:32:27.266Z,47.80
2017-10-29T15:34:55.917Z,47.80
2017-10-29T15:37:24.580Z,47.40
2017-10-29T15:39:54.061Z,45.70
2017-10-29T15:42:22.734Z,45.70
2017-10-29T15:44:51.399Z,46.70
2017-10-29T15:47:20.077Z,46.50
2017-10-29T15:49:48.736Z,45.30
2017-10-29T15:52:18.353Z,44.90
2017-10-29T15:54:47.803Z,45.50
2017-10-29T15:57:16.514Z,45.50
2017-10-29T15:59:45.229Z,44.40
2017-10-29T16:02:13.884Z,44.30
2017-10-29T16:04:42.547Z,45.10
2017-10-29T16:07:11.254Z,45.60
2017-10-29T16:09:39.918Z,45.30
2017-10-29T16:12:08.589Z,44.70
2017-10-29T16:14:37.277Z,44.50
2017-10-29T16:17:05.958Z,44.50
2017-10-29T16:19:34.651Z,44.40
2017-10-29T16:22:03.363Z,45.00
2017-10-29T16:24:32.045Z,45.00
2017-10-29T16:27:00.714Z,46.00
2017-10-29T16:29:29.219Z,45.20
2017-10-29T16:31:57.903Z,44.90
2017-10-29T16:34:26.602Z,43.90
2017-10-29T16:36:55.316Z,43.90
2017-10-29T16:39:24.016Z,43.60
2017-10-29T16:41:52.680Z,43.40
2017-10-29T16:44:21.408Z,44.40
2017-10-29T16:46:50.074Z,43.70
2017-10-29T16:49:18.733Z,43.80
2017-10-29T16:51:47.431Z,43.10
2017-10-29T16:54:16.094Z,43.10
2017-10-29T16:56:44.749Z,42.70
2017-10-29T16:59:13.231Z,42.90
2017-10-29T17:01:41.890Z,42.50
2017-10-29T17:04:11.346Z,41.90
2017-10-29T17:06:40.038Z,41.90
2017-10-29T17:09:08.706Z,41.30
2017-10-29T17:11:37.390Z,41.30
2017-10-29T17:14:06.069Z,41.10
2017-10-29T17:16:34.737Z,40.90
2017-10-29T17:19:03.458Z,41.20
2017-10-29T17:21:32.138Z,41.00
2017-10-29T17:24:00.798Z,41.70
2017-10-29T17:26:29.518Z,41.30
2017-10-29T17:28:58.193Z,41.60
2017-10-29T17:31:26.592Z,42.00
2017-10-29T17:33:55.338Z,42.20
2017-10-29T17:36:24.779Z,41.10
2017-10-29T17:38:53.448Z,41.10
2017-10-29T17:41:22.143Z,42.10
2017-10-29T17:43:50.851Z,41.20
2017-10-29T17:46:19.518Z,41.40
2017-10-29T17:48:48.251Z,41.40
2017-10-29T17:51:16.961Z,42.20
2017-10-29T17:53:46.413Z,43.10
2017-10-29T17:56:15.201Z,42.90
2017-10-29T17:58:44.116Z,42.50
2017-10-29T18:01:12.803Z,42.60
2017-10-29T18:03:41.621Z,43.20
2017-10-29T18:06:12.002Z,43.10
2017-10-29T18:08:40.721Z,43.10
2017-10-29T18:11:09.434Z,43.70
2017-10-29T18:13:38.182Z,43.70
2017-10-29T18:16:07.267Z,44.10
2017-10-29T18:18:35.970Z,43.60
2017-10-29T18:21:04.375Z,43.90
2017-10-29T18:23:33.863Z,44.40
2017-10-29T18:26:02.559Z,44.40
2017-10-29T18:28:33.494Z,44.30
2017-10-29T18:31:02.242Z,44.20
2017-10-29T18:33:31.918Z,44.00
2017-10-29T18:36:01.071Z,44.10
2017-10-29T18:38:33.121Z,44.80
2017-10-29T18:41:01.834Z,44.90
2017-10-29T18:43:30.535Z,44.90
2017-10-29T18:45:59.286Z,45.30
2017-10-29T18:48:27.985Z,44.00
2017-10-29T18:50:56.693Z,44.60
2017-10-29T18:53:25.408Z,44.40
2017-10-29T18:55:54.873Z,43.40
2017-10-29T18:58:23.555Z,43.30
2017-10-29T19:00:52.739Z,43.20
2017-10-29T19:03:22.803Z,43.60
2017-10-29T19:05:52.002Z,44.00
2017-10-29T19:08:21.281Z,42.70
2017-10-29T19:10:55.984Z,42.70
2017-10-29T19:13:26.975Z,42.60
2017-10-29T19:15:58.271Z,42.60
2017-10-29T19:18:29.160Z,43.40
2017-10-29T19:20:58.423Z,43.40
2017-10-29T19:23:28.395Z,43.20
2017-10-29T19:25:58.339Z,43.20
2017-10-29T19:28:27.667Z,44.30
2017-10-29T19:30:58.685Z,44.90
2017-10-29T19:33:27.925Z,44.90
2017-10-29T19:35:58.609Z,45.50
2017-10-29T19:38:27.735Z,45.70
2017-10-29T19:40:59.517Z,46.10
2017-10-29T19:43:28.831Z,46.40
2017-10-29T19:45:58.705Z,46.90
2017-10-29T19:48:28.317Z,46.30
2017-10-29T19:50:59.065Z,46.30
2017-10-29T19:53:28.422Z,45.70
2017-10-29T19:55:57.635Z,43.90
2017-10-29T19:58:27.423Z,45.90
2017-10-29T20:00:56.739Z,44.80
2017-10-29T20:03:26.162Z,45.20
2017-10-29T20:05:55.465Z,45.30
2017-10-29T20:08:27.413Z,44.40
2017-10-29T20:10:56.719Z,44.40
2017-10-29T20:13:26.041Z,45.60
2017-10-29T20:15:56.047Z,43.80
2017-10-29T20:18:25.304Z,43.90
2017-10-29T20:20:54.469Z,46.10
2017-10-29T20:23:24.793Z,47.10
2017-10-29T20:25:53.988Z,43.80
2017-10-29T20:28:23.261Z,43.60
2017-10-29T20:30:53.970Z,42.70
2017-10-29T20:33:24.248Z,44.10
2017-10-29T20:35:55.138Z,44.40
2017-10-29T20:38:24.453Z,44.40
2017-10-29T20:40:54.711Z,47.30
2017-10-29T20:43:24.452Z,48.40
2017-10-29T20:45:56.613Z,48.00
2017-10-29T20:48:26.336Z,49.30
2017-10-29T20:50:55.610Z,46.60
2017-10-29T20:53:24.899Z,47.50
2017-10-29T20:55:54.020Z,45.60
2017-10-29T20:58:23.646Z,48.20
2017-10-29T21:00:52.827Z,49.40
2017-10-29T21:03:23.486Z,49.10
2017-10-29T21:05:52.664Z,49.10
2017-10-29T21:08:22.698Z,48.00
2017-10-29T21:10:51.899Z,44.90
2017-10-29T21:13:21.033Z,42.00
2017-10-29T21:15:50.163Z,43.00
2017-10-29T21:18:20.091Z,43.80
2017-10-29T21:20:49.285Z,44.00
2017-10-29T21:23:18.584Z,46.90
2017-10-29T21:25:47.990Z,48.20
2017-10-29T21:28:17.230Z,48.10
2017-10-29T21:30:46.488Z,48.50
2017-10-29T21:33:16.708Z,47.40
2017-10-29T21:35:47.186Z,47.90
2017-10-29T21:38:17.309Z,48.20
2017-10-29T21:40:47.403Z,47.30
2017-10-29T21:43:16.665Z,44.50
2017-10-29T21:45:46.650Z,44.30
2017-10-29T21:48:16.642Z,44.30
2017-10-29T21:50:46.751Z,43.90
2017-10-29T21:53:16.184Z,46.60
2017-10-29T21:55:45.688Z,46.10
2017-10-29T21:58:14.898Z,46.50
2017-10-29T22:00:45.407Z,46.60
2017-10-29T22:03:15.363Z,48.20
2017-10-29T22:05:44.651Z,48.20
2017-10-29T22:08:14.872Z,47.70
2017-10-29T22:10:43.996Z,49.90
2017-10-29T22:13:13.169Z,49.50
2017-10-29T22:15:42.388Z,51.30
2017-10-29T22:18:12.449Z,51.80
2017-10-29T22:20:42.397Z,51.90
2017-10-29T22:23:11.522Z,53.90
2017-10-29T22:25:42.550Z,54.50
2017-10-29T22:28:12.365Z,54.50
2017-10-29T22:30:42.702Z,53.70
2017-10-29T22:33:12.129Z,53.70
2017-10-29T22:35:41.320Z,51.80
2017-10-29T22:38:11.145Z,47.40
2017-10-29T22:40:40.363Z,48.00
2017-10-29T22:43:09.693Z,51.40
2017-10-29T22:45:38.838Z,52.90
2017-10-29T22:48:08.756Z,53.40
2017-10-29T22:50:37.959Z,53.40
2017-10-29T22:53:07.132Z,55.30
2017-10-29T22:55:37.093Z,55.60
2017-10-29T22:58:06.278Z,55.60
2017-10-29T23:00:36.940Z,58.70
2017-10-29T23:03:06.187Z,58.70
2017-10-29T23:05:46.350Z,57.20
2017-10-29T23:08:15.810Z,55.60
2017-10-29T23:10:45.757Z,59.00
2017-10-29T23:13:15.995Z,59.50
2017-10-29T23:15:45.945Z,62.40
2017-10-29T23:18:14.915Z,61.10
2017-10-29T23:20:44.049Z,62.40
2017-10-29T23:23:13.197Z,64.30
2017-10-29T23:25:42.809Z,64.60
2017-10-29T23:28:12.541Z,64.30
2017-10-29T23:30:42.023Z,64.70
2017-10-29T23:33:12.283Z,63.90
2017-10-29T23:35:41.476Z,63.90
2017-10-29T23:38:11.159Z,64.20
2017-10-29T23:40:40.850Z,63.90
2017-10-29T23:43:10.866Z,65.10
2017-10-29T23:45:40.105Z,65.10
2017-10-29T23:48:09.889Z,64.60
2017-10-29T23:50:39.666Z,64.80
2017-10-29T23:53:08.953Z,64.80
2017-10-29T23:55:38.371Z,65.70
2017-10-29T23:58:07.570Z,66.40
